Share

Angela, MT

6:40 AM MDT on April 23, 2014 (GMT -0600)
Wiley (KMLS) Elev 2628 ft | 46.43 °N, 105.88 °W | Change Station

Current weather conditions updated 35 minutes ago

Haze
Haze
50 °F
Feels Like 50 °F
N
28
Wind Variable Wind from NW
Gusts 36 mph
Sunrise 6:03 AM
Sunset 8:04 PM
Moon Last Quarter

Today is forecast to be Much Cooler than yesterday.

Pressure 29.42 in
Visibility 1.8 miles
Clouds Mostly Cloudy 1800 ft
Dew Point 43 °F
Humidity 77%
Rainfall 0.00 in
Snow Depth Not available.
UV 0 out of 16
Pollen 7.30 out of 12
Air Quality Not available.
Flu Activity Sporadic
SPECI KMLS 231205Z AUTO 31024G31KT 1 3/4SM HZ BKN018 10/06 A2942 RMK AO2 PK WND 31031/1204 T01000061 PWINO $

More Conditions Fewer Conditions

Pressure 29.42 in
Visibility 1.8 miles
Clouds Mostly Cloudy 1800 ft
Dew Point 43 °F
Humidity 77%
Rainfall 0.00 in
Snow Depth Not available.
UV 0 out of 16
Pollen 7.30 out of 12
Air Quality Not available.
Flu Activity Sporadic
SPECI KMLS 231205Z AUTO 31024G31KT 1 3/4SM HZ BKN018 10/06 A2942 RMK AO2 PK WND 31031/1204 T01000061 PWINO $

More Conditions Fewer Conditions

10-Day Weather Forecast

Almanac

Astronomy

Apr. 23, 2014 Rise Set
Actual Time 6:03 AM MDT 8:04 PM MDT
Civil Twilight 5:31 AM MDT 8:37 PM MDT
Nautical Twilight 4:51 AM MDT 9:17 PM MDT
Astronomical Twilight 4:06 AM MDT 10:02 PM MDT
Moon 2:59 AM MDT 1:55 PM MDT
Length of Visible Light 15h 06m
Length of Day
14h 00m
Tomorrow will be 3m 4s longer.
Last Quarter, 36% of the Moon is Illuminated
Today
Last Quarter
Apr 29
New
May 6
First Quarter
May 14
Full
May 21
Last Quarter

Today's Extremes

State Highs State Lows

Community

  • April Sunset
    April Sunset
  • Waiting..
    Waiting..
  • Sunset...
    Sunset...
  • Happy outdoor day
    Happy outdoor day
  • mystic afternoon....
    mystic afternoon....

WunderPhotos

Upload Photos

1,704,257 photos uploaded!

Nearby

Snow Depth

Station Depth Elevation
Crystal Lake 51 in 6050 ft
Cole Creek 69 in 7850 ft
Burnt Mountain 19 in 5880 ft
Rocky Boy 0 in 4700 ft
Daisy Peak 46 in 7600 ft

Coastal Water Temperatures

Place Temperature
No Stations Reporting

Earthquake Activity

City Distance Mag. Time & Date
No recent earthquake activity has been reported nearby.
Minimum magnitude displayed is 2.5.

Nearby Weather Stations

There are no personal weather stations in this area.

What do you think?

We're not finished. Please let us know what you like, what you don't like, and what you are still missing.